LESU Airport Information

Runway Information
Runway 04 Length 4396 ft width 98 ft
Elevation 0 ft Threshold 0 ft Heading 39
Runway 22 Length 4396 ft Width 98 ft
Elevation 0 ft Threshold 0 ft Heading 219
Airport Frequencies
Airport Navaids
Type NDB Name Seo De Urgel Frequency 340 KHZ
Airport Weather Information & NOTAM
ADDS - METARS form results

(2052 UTC 23 February 2019)
Data provider http://aviationweather.gov/metar/data/
 
Forecast for: AMD
Text: TAF AMD LESU 231536Z 2315/2415 VRB03KT 9999 FEW040 TX19/2414Z TN01/2407Z
Forecast period: 1500 UTC 23 February 2019 to 1500 UTC 24 February 2019
Forecast type: FROM: standard forecast or significant change
Winds: variable direction winds at 3 MPH (3 knots; 1.5 m/s)
Visibility: 6 or more miles 10+ km)
Ceiling: at least 12,000 feet AGL
Clouds: few clouds at 4000 feet AGL
Weather: no significant weather forecast for this period
Text: PROB40
Forecast period: 1500 to 1800 UTC 23 February 2019
Forecast type: TEMPORARY: The following changes expected for less than half the time period
Winds: from the WSW (240 degrees) at 18 MPH (16 knots; 8.2 m/s)
Visibility: missing
Ceiling: unknown
Clouds: missing
Weather: no significant weather forecast for this period